This is the latest recevied weather packets stored in our database for station/object S53BL-10. If no packets are shown the sender has not sent any weather packets the latest 10 day(s).
| Time | Temp. | Humidity | Pressure | Rain* | Wind** | Luminosity | Snow |
|---|---|---|---|---|---|---|---|
| 1777386853 | 25° C | 28% | 1013 hPa | - | - | - | - |
| 1777385952 | 25.56° C | 29% | 1013 hPa | - | - | - | - |
| 1777385051 | 23.89° C | 29% | 1013.1 hPa | - | - | - | - |
| 1777382349 | 26.11° C | 26% | 1013.6 hPa | - | - | - | - |
| 1777381448 | 26.11° C | 26% | 1013.7 hPa | - | - | - | - |
| 1777378746 | 22.78° C | 32% | 1014.1 hPa | - | - | - | - |
| 1777377845 | 23.89° C | 28% | 1014.2 hPa | - | - | - | - |
| 1777372440 | 22.78° C | 29% | 1014.9 hPa | - | - | - | - |
| 1777371539 | 23.89° C | 29% | 1015.1 hPa | - | - | - | - |
| 1777370639 | 22.78° C | 31% | 1015.2 hPa | - | - | - | - |
| 1777369738 | 21.67° C | 33% | 1015.4 hPa | - | - | - | - |
| 1777367936 | 22.22° C | 34% | 1015.8 hPa | - | - | - | - |
| 1777367035 | 22.78° C | 34% | 1015.8 hPa | - | - | - | - |
| 1777366134 | 22.22° C | 35% | 1015.8 hPa | - | - | - | - |
| 1777365233 | 22.22° C | 37% | 1015.8 hPa | - | - | - | - |
| 1777364333 | 19.44° C | 38% | 1015.8 hPa | - | - | - | - |
| 1777363432 | 18.33° C | 42% | 1015.8 hPa | - | - | - | - |
| 1777362531 | 18.89° C | 42% | 1015.7 hPa | - | - | - | - |
| 1777361629 | 16.67° C | 52% | 1015.9 hPa | - | - | - | - |
| 1777360729 | 14.44° C | 59% | 1016 hPa | - | - | - | - |
| 1777359828 | 13.33° C | 64% | 1016.1 hPa | - | - | - | - |
| 1777358927 | 12.78° C | 67% | 1016.2 hPa | - | - | - | - |
| 1777358026 | 12.22° C | 70% | 1016 hPa | - | - | - | - |
| 1777357126 | 11.67° C | 72% | 1016 hPa | - | - | - | - |
| 1777356225 | 10.56° C | 74% | 1015.9 hPa | - | - | - | - |
* Rain since midnight (hover to see other rain measurements)
** Current wind speed in m/s (hover to see current wind gust speed)